createdAt,value
2019-03-19T00:01:03.473Z,5.83
2019-03-19T00:03:35.080Z,6.03
2019-03-19T00:06:03.974Z,6.27
2019-03-19T00:08:32.824Z,6.70
2019-03-19T00:11:01.790Z,6.20
2019-03-19T00:13:30.907Z,5.97
2019-03-19T00:16:00.226Z,5.27
2019-03-19T00:18:29.484Z,6.50
2019-03-19T00:20:58.502Z,6.33
2019-03-19T00:23:27.348Z,5.93
2019-03-19T00:25:56.572Z,5.80
2019-03-19T00:28:25.396Z,5.47
2019-03-19T00:30:55.189Z,5.60
2019-03-19T00:33:24.109Z,5.63
2019-03-19T00:35:56.347Z,5.90
2019-03-19T00:38:25.221Z,6.30
2019-03-19T00:40:58.130Z,6.50
2019-03-19T00:43:26.956Z,6.23
2019-03-19T00:45:59.783Z,6.30
2019-03-19T00:48:29.278Z,6.23
2019-03-19T00:50:58.558Z,7.37
2019-03-19T00:53:27.870Z,7.43
2019-03-19T00:55:57.016Z,6.53
2019-03-19T01:01:01.538Z,6.87
2019-03-19T01:03:30.498Z,6.23
2019-03-19T01:05:59.384Z,7.43
2019-03-19T01:08:28.353Z,7.17
2019-03-19T01:10:57.549Z,6.97
2019-03-19T01:13:26.381Z,6.37
2019-03-19T01:15:55.513Z,6.63
2019-03-19T01:18:31.223Z,6.80
2019-03-19T01:21:00.115Z,6.43
2019-03-19T01:23:31.142Z,6.30
2019-03-19T01:26:02.245Z,6.60
2019-03-19T01:28:31.530Z,6.60
2019-03-19T01:31:01.054Z,6.30
2019-03-19T01:33:29.835Z,6.13
2019-03-19T01:35:58.749Z,5.73
2019-03-19T01:38:28.607Z,6.47
2019-03-19T01:40:58.144Z,6.33
2019-03-19T01:43:27.025Z,6.37
2019-03-19T01:45:56.333Z,6.23
2019-03-19T01:48:26.687Z,5.80
2019-03-19T01:50:55.987Z,5.67
2019-03-19T01:53:24.915Z,6.50
2019-03-19T01:56:04.749Z,6.00
2019-03-19T01:58:29.761Z,6.27
2019-03-19T02:00:58.985Z,6.57
2019-03-19T02:03:28.271Z,6.27
2019-03-19T02:05:57.107Z,6.27
2019-03-19T02:08:25.994Z,6.23
2019-03-19T02:10:54.900Z,6.53
2019-03-19T02:13:25.735Z,6.17
2019-03-19T02:15:54.880Z,6.20
2019-03-19T02:18:24.439Z,6.77
2019-03-19T02:20:53.824Z,7.60
2019-03-19T02:23:25.874Z,7.27
2019-03-19T02:25:55.004Z,7.33
2019-03-19T02:28:23.828Z,7.57
2019-03-19T02:30:52.727Z,8.70
2019-03-19T02:33:21.646Z,8.60
2019-03-19T02:35:50.530Z,7.67
2019-03-19T02:38:26.233Z,7.07
2019-03-19T02:40:56.170Z,6.80
2019-03-19T02:43:28.262Z,6.27
2019-03-19T02:45:57.484Z,7.17
2019-03-19T02:48:26.434Z,7.40
2019-03-19T02:50:55.273Z,7.77
2019-03-19T02:53:24.442Z,7.90
2019-03-19T02:55:53.295Z,7.03
2019-03-19T02:58:23.687Z,7.23
2019-03-19T03:00:52.836Z,7.17
2019-03-19T03:03:23.846Z,7.03
2019-03-19T03:05:53.130Z,7.00
2019-03-19T03:08:22.173Z,6.33
2019-03-19T03:10:51.869Z,7.47
2019-03-19T03:13:21.631Z,7.00
2019-03-19T03:15:50.560Z,6.63
2019-03-19T03:18:19.684Z,6.47
2019-03-19T03:20:48.566Z,6.53
2019-03-19T03:23:17.760Z,7.00
2019-03-19T03:25:47.056Z,6.93
2019-03-19T03:28:15.969Z,6.83
2019-03-19T03:30:45.215Z,6.40
2019-03-19T03:33:14.421Z,6.90
2019-03-19T03:35:45.367Z,6.70
2019-03-19T03:38:29.902Z,7.07
2019-03-19T03:40:58.871Z,6.30
2019-03-19T03:43:28.615Z,7.47
2019-03-19T03:45:57.581Z,6.93
2019-03-19T03:48:26.833Z,6.97
2019-03-19T03:50:56.103Z,6.10
2019-03-19T03:53:25.670Z,6.67
2019-03-19T03:55:54.624Z,6.03
2019-03-19T03:58:23.580Z,6.23
2019-03-19T04:00:52.493Z,6.33
2019-03-19T04:03:21.957Z,6.60
2019-03-19T04:05:51.468Z,6.23
2019-03-19T04:08:21.141Z,5.97
2019-03-19T04:10:50.083Z,5.53
2019-03-19T04:13:19.899Z,5.70
2019-03-19T04:15:48.778Z,6.27
2019-03-19T04:18:17.716Z,6.43
2019-03-19T04:20:47.529Z,5.47
2019-03-19T04:23:17.913Z,5.83
2019-03-19T04:25:46.899Z,5.50
2019-03-19T04:28:15.893Z,6.23
2019-03-19T04:30:45.182Z,5.43
2019-03-19T04:33:14.050Z,5.27
2019-03-19T04:35:42.943Z,5.17
2019-03-19T04:38:12.120Z,6.10
2019-03-19T04:40:41.216Z,5.80
2019-03-19T04:43:10.111Z,5.30
2019-03-19T04:45:39.019Z,5.27
2019-03-19T04:48:08.554Z,5.60
2019-03-19T04:50:37.434Z,5.37
2019-03-19T04:53:07.678Z,4.90
2019-03-19T04:55:36.546Z,5.87
2019-03-19T04:58:08.898Z,5.40
2019-03-19T05:00:37.791Z,5.43
2019-03-19T05:03:06.686Z,5.80
2019-03-19T05:05:37.066Z,5.53
2019-03-19T05:08:06.273Z,5.50
2019-03-19T05:10:35.219Z,5.43
2019-03-19T05:13:05.439Z,6.37
2019-03-19T05:15:35.162Z,5.40
2019-03-19T05:18:04.059Z,5.73
2019-03-19T05:20:33.027Z,6.77
2019-03-19T05:23:01.953Z,6.47
2019-03-19T05:25:30.968Z,7.27
2019-03-19T05:27:59.861Z,8.57
2019-03-19T05:30:31.721Z,9.67
2019-03-19T05:33:00.657Z,9.07
2019-03-19T05:35:29.800Z,10.87
2019-03-19T05:37:59.339Z,10.60
2019-03-19T05:40:31.290Z,11.10
2019-03-19T05:43:01.968Z,10.53
2019-03-19T05:45:31.015Z,10.67
2019-03-19T05:48:00.228Z,11.87
2019-03-19T05:50:32.803Z,11.87
2019-03-19T05:53:01.790Z,11.13
2019-03-19T05:55:30.936Z,11.13
2019-03-19T05:57:59.771Z,10.90
2019-03-19T06:00:31.863Z,11.37
2019-03-19T06:03:04.459Z,10.03
2019-03-19T06:05:33.847Z,9.93
2019-03-19T06:08:03.074Z,10.70
2019-03-19T06:10:32.487Z,10.53
2019-03-19T06:13:02.247Z,10.53
2019-03-19T06:15:31.266Z,10.07
2019-03-19T06:18:00.916Z,10.00
2019-03-19T06:20:29.901Z,9.43
2019-03-19T06:22:59.108Z,9.47
2019-03-19T06:25:28.846Z,9.47
2019-03-19T06:30:32.776Z,9.60
2019-03-19T06:33:01.779Z,9.60
2019-03-19T06:35:32.012Z,9.63
2019-03-19T06:38:01.599Z,9.37
2019-03-19T06:40:31.318Z,10.77
2019-03-19T06:43:00.221Z,9.13
2019-03-19T06:45:29.824Z,9.43
2019-03-19T06:47:59.191Z,8.97
2019-03-19T06:50:28.369Z,9.97
2019-03-19T06:53:00.281Z,9.07
2019-03-19T06:55:29.600Z,9.23
2019-03-19T06:57:58.847Z,9.93
2019-03-19T07:00:28.531Z,10.10
2019-03-19T07:02:57.861Z,10.47
2019-03-19T07:05:30.168Z,9.63
2019-03-19T07:08:01.469Z,9.07
2019-03-19T07:10:30.381Z,8.30
2019-03-19T07:13:00.124Z,8.63
2019-03-19T07:15:29.398Z,8.17
2019-03-19T07:18:01.131Z,7.53
2019-03-19T07:20:30.817Z,7.53
2019-03-19T07:23:00.062Z,7.10
2019-03-19T07:25:29.013Z,7.47
2019-03-19T07:28:01.268Z,7.10
2019-03-19T07:30:30.931Z,7.10
2019-03-19T07:33:03.694Z,7.10
2019-03-19T07:35:32.866Z,7.10
2019-03-19T07:40:36.188Z,8.00
2019-03-19T07:43:05.228Z,7.53
2019-03-19T07:45:37.863Z,7.63
2019-03-19T07:48:06.800Z,8.10
2019-03-19T07:50:36.531Z,9.60
2019-03-19T07:53:05.894Z,11.60
2019-03-19T07:55:35.755Z,11.50
2019-03-19T07:58:04.818Z,12.03
2019-03-19T08:00:34.066Z,13.23
2019-03-19T08:03:15.156Z,15.37
2019-03-19T08:05:34.724Z,17.53
2019-03-19T08:08:03.737Z,18.37
2019-03-19T08:10:32.661Z,19.33
2019-03-19T08:13:04.991Z,19.47
2019-03-19T08:15:34.347Z,20.03
2019-03-19T08:18:03.325Z,21.30
2019-03-19T08:20:32.644Z,22.97
2019-03-19T08:23:01.819Z,23.80
2019-03-19T08:25:32.769Z,23.73
2019-03-19T08:28:01.662Z,24.17
2019-03-19T08:30:30.652Z,22.97
2019-03-19T08:32:59.598Z,22.83
2019-03-19T08:35:28.508Z,21.23
2019-03-19T08:38:00.520Z,21.50
2019-03-19T08:40:32.698Z,21.63
2019-03-19T08:43:04.444Z,20.27
2019-03-19T08:45:34.450Z,21.43
2019-03-19T08:48:06.857Z,20.70
2019-03-19T08:50:36.439Z,20.30
2019-03-19T08:53:05.565Z,18.73
2019-03-19T08:55:34.459Z,18.23
2019-03-19T08:58:06.409Z,17.57
2019-03-19T09:00:35.387Z,17.33
2019-03-19T09:03:04.377Z,16.40
2019-03-19T09:05:33.299Z,18.00
2019-03-19T09:08:02.178Z,17.03
2019-03-19T09:10:31.250Z,17.80
2019-03-19T09:13:02.308Z,18.70
2019-03-19T09:15:31.226Z,18.83
2019-03-19T09:18:00.883Z,20.53
2019-03-19T09:20:29.859Z,18.93
2019-03-19T09:22:58.998Z,21.20
2019-03-19T09:25:28.403Z,18.97
2019-03-19T09:27:59.114Z,19.93
2019-03-19T09:30:28.098Z,21.93
2019-03-19T09:32:57.220Z,20.63
2019-03-19T09:35:26.523Z,20.87
2019-03-19T09:37:58.862Z,22.07
2019-03-19T09:40:26.549Z,22.67
2019-03-19T09:42:55.345Z,24.17
2019-03-19T09:45:24.504Z,25.30
2019-03-19T09:47:53.803Z,26.70
2019-03-19T09:50:23.122Z,26.33
2019-03-19T09:52:52.063Z,27.77
2019-03-19T09:55:20.993Z,27.90
2019-03-19T09:57:53.309Z,25.03
2019-03-19T10:00:22.588Z,20.67
2019-03-19T10:02:52.020Z,19.80
2019-03-19T10:05:21.054Z,20.53
2019-03-19T10:07:50.395Z,20.70
2019-03-19T10:10:23.098Z,23.83
2019-03-19T10:12:52.195Z,22.80
2019-03-19T10:15:22.446Z,22.67
2019-03-19T10:17:51.424Z,21.70
2019-03-19T10:20:23.804Z,21.73
2019-03-19T10:22:53.530Z,20.67
2019-03-19T10:25:25.571Z,18.50
2019-03-19T10:27:54.475Z,19.40
2019-03-19T10:30:25.729Z,18.83
2019-03-19T10:32:57.043Z,18.20
2019-03-19T10:35:26.132Z,17.33
2019-03-19T10:37:55.383Z,17.27
2019-03-19T10:40:26.081Z,16.90
2019-03-19T10:42:54.988Z,16.83
2019-03-19T10:45:24.353Z,15.00
2019-03-19T10:47:53.404Z,15.47
2019-03-19T10:50:25.798Z,15.37
2019-03-19T10:52:55.170Z,14.10
2019-03-19T10:55:27.235Z,14.27
2019-03-19T10:57:58.501Z,13.50
2019-03-19T11:00:28.366Z,14.57
2019-03-19T11:02:59.185Z,14.27
2019-03-19T11:05:28.137Z,13.73
2019-03-19T11:07:57.306Z,12.77
2019-03-19T11:10:27.793Z,13.50
2019-03-19T11:12:56.756Z,13.53
2019-03-19T11:15:25.728Z,12.40
2019-03-19T11:17:54.959Z,11.97
2019-03-19T11:20:23.916Z,12.13
2019-03-19T11:22:52.904Z,10.33
2019-03-19T11:25:22.193Z,10.50
2019-03-19T11:27:51.187Z,9.47
2019-03-19T11:30:21.875Z,9.70
2019-03-19T11:32:51.123Z,9.93
2019-03-19T11:35:20.313Z,9.50
2019-03-19T11:37:51.238Z,8.20
2019-03-19T11:40:21.607Z,9.17
2019-03-19T11:42:52.995Z,9.30
2019-03-19T11:45:22.073Z,8.90
2019-03-19T11:47:51.506Z,10.40
2019-03-19T11:50:21.350Z,10.40
2019-03-19T11:52:50.465Z,10.40
2019-03-19T11:55:19.783Z,9.80
2019-03-19T11:57:49.362Z,9.18
2019-03-19T12:00:32.121Z,10.27
2019-03-19T12:03:12.185Z,9.60
2019-03-19T12:05:32.119Z,9.53
2019-03-19T12:08:01.131Z,9.90
2019-03-19T12:10:30.054Z,10.10
2019-03-19T12:12:59.737Z,10.20
2019-03-19T12:15:31.072Z,9.73
2019-03-19T12:18:00.074Z,9.53
2019-03-19T12:20:29.068Z,9.43
2019-03-19T12:22:58.077Z,9.50
2019-03-19T12:25:27.522Z,9.60
2019-03-19T12:27:56.710Z,8.23
2019-03-19T12:30:26.583Z,8.07
2019-03-19T12:32:55.674Z,6.92
2019-03-19T12:35:24.666Z,5.67
2019-03-19T12:37:53.884Z,4.73
2019-03-19T12:40:23.737Z,2.65
2019-03-19T12:42:53.301Z,3.10
2019-03-19T12:45:22.708Z,3.20
2019-03-19T12:47:52.068Z,3.10
2019-03-19T12:50:21.264Z,2.67
2019-03-19T12:52:50.151Z,2.33
2019-03-19T12:55:19.574Z,2.23
2019-03-19T12:57:48.677Z,2.67
2019-03-19T13:00:19.489Z,2.27
2019-03-19T13:02:48.440Z,2.57
2019-03-19T13:05:17.405Z,2.90
2019-03-19T13:07:46.425Z,2.40
2019-03-19T13:10:18.193Z,2.40
2019-03-19T13:12:47.497Z,2.33
2019-03-19T13:15:19.245Z,2.50
2019-03-19T13:17:48.230Z,2.57
2019-03-19T13:20:17.231Z,2.47
2019-03-19T13:22:46.391Z,2.73
2019-03-19T13:25:16.717Z,2.20
2019-03-19T13:27:45.847Z,2.30
2019-03-19T13:30:17.759Z,1.90
2019-03-19T13:32:47.343Z,1.97
2019-03-19T13:35:16.579Z,2.10
2019-03-19T13:37:47.554Z,2.20
2019-03-19T13:40:17.097Z,1.97
2019-03-19T13:42:46.440Z,2.20
2019-03-19T13:45:18.739Z,2.27
2019-03-19T13:47:48.536Z,2.77
2019-03-19T13:50:17.733Z,2.87
2019-03-19T13:52:47.360Z,2.95
2019-03-19T13:55:17.417Z,2.37
2019-03-19T13:57:46.413Z,2.27
2019-03-19T14:00:15.770Z,1.90
2019-03-19T14:02:44.790Z,2.37
2019-03-19T14:05:13.711Z,2.23
2019-03-19T14:07:42.621Z,2.60
2019-03-19T14:10:11.868Z,2.42
2019-03-19T14:12:41.690Z,2.37
2019-03-19T14:15:12.844Z,2.40
2019-03-19T14:17:42.921Z,2.70
2019-03-19T14:20:13.522Z,2.02
2019-03-19T14:22:44.986Z,2.30
2019-03-19T14:25:13.958Z,2.10
2019-03-19T14:27:43.401Z,2.08
2019-03-19T14:30:14.700Z,1.80
2019-03-19T14:32:44.216Z,2.35
2019-03-19T14:35:15.670Z,2.02
2019-03-19T14:37:45.060Z,2.33
2019-03-19T14:40:15.769Z,1.90
2019-03-19T14:42:45.639Z,2.10
2019-03-19T14:45:15.477Z,2.08
2019-03-19T14:47:45.056Z,2.67
2019-03-19T14:50:15.426Z,2.22
2019-03-19T14:52:44.996Z,2.40
2019-03-19T14:55:14.596Z,2.30
2019-03-19T14:57:43.860Z,2.10
2019-03-19T15:00:14.591Z,2.25
2019-03-19T15:02:43.549Z,2.40
2019-03-19T15:05:13.488Z,2.58
2019-03-19T15:07:44.023Z,2.40
2019-03-19T15:10:14.191Z,1.80
2019-03-19T15:12:43.681Z,2.30
2019-03-19T15:15:13.898Z,2.40
2019-03-19T15:17:43.931Z,2.58
2019-03-19T15:20:19.282Z,2.65
2019-03-19T15:22:48.816Z,2.20
2019-03-19T15:25:17.829Z,2.40
2019-03-19T15:27:46.754Z,2.40
2019-03-19T15:30:16.410Z,2.22
2019-03-19T15:32:48.354Z,2.10
2019-03-19T15:35:17.697Z,2.40
2019-03-19T15:37:51.003Z,2.52
2019-03-19T15:40:20.622Z,2.33
2019-03-19T15:42:50.169Z,2.77
2019-03-19T15:45:20.232Z,2.65
2019-03-19T15:47:49.658Z,2.22
2019-03-19T15:50:26.879Z,2.92
2019-03-19T15:52:56.346Z,2.58
2019-03-19T15:55:26.055Z,2.30
2019-03-19T15:57:55.718Z,2.60
2019-03-19T16:00:25.723Z,2.80
2019-03-19T16:02:56.063Z,2.98
2019-03-19T16:05:29.159Z,2.37
2019-03-19T16:07:59.035Z,2.87
2019-03-19T16:10:29.191Z,2.95
2019-03-19T16:13:02.355Z,2.87
2019-03-19T16:15:32.017Z,2.75
2019-03-19T16:18:02.109Z,3.20
2019-03-19T16:20:34.703Z,3.08
2019-03-19T16:23:04.709Z,3.10
2019-03-19T16:25:34.658Z,3.22
2019-03-19T16:28:04.260Z,3.00
2019-03-19T16:30:34.240Z,3.52
2019-03-19T16:33:06.802Z,2.67
2019-03-19T16:35:37.158Z,2.90
2019-03-19T16:38:07.339Z,3.70
2019-03-19T16:40:36.954Z,3.55
2019-03-19T16:43:06.482Z,3.67
2019-03-19T16:45:36.801Z,4.08
2019-03-19T16:48:06.699Z,3.98
2019-03-19T16:50:36.323Z,3.83
2019-03-19T16:53:06.084Z,3.80
2019-03-19T16:55:36.773Z,3.80
2019-03-19T16:58:05.802Z,4.08
2019-03-19T17:00:35.442Z,3.95
2019-03-19T17:03:05.205Z,4.20
2019-03-19T17:05:35.123Z,3.77
2019-03-19T17:08:07.256Z,4.58
2019-03-19T17:10:37.129Z,4.60
2019-03-19T17:13:06.270Z,4.05
2019-03-19T17:15:35.782Z,4.40
2019-03-19T17:18:06.272Z,5.17
2019-03-19T17:20:36.113Z,5.20
2019-03-19T17:23:07.375Z,5.80
2019-03-19T17:25:37.974Z,5.92
2019-03-19T17:28:07.146Z,5.77
2019-03-19T17:33:18.295Z,5.27
2019-03-19T17:35:48.095Z,5.67
2019-03-19T17:38:17.027Z,6.03
2019-03-19T17:40:45.985Z,6.20
2019-03-19T17:43:14.992Z,5.90
2019-03-19T17:45:43.892Z,6.20
2019-03-19T17:49:06.025Z,5.77
2019-03-19T17:51:38.395Z,6.37
2019-03-19T17:54:07.497Z,6.63
2019-03-19T17:56:37.024Z,6.47
2019-03-19T17:59:07.590Z,7.33
2019-03-19T18:01:37.333Z,6.77
2019-03-19T18:04:09.837Z,7.00
2019-03-19T18:06:43.969Z,8.23
2019-03-19T18:09:16.078Z,8.13
2019-03-19T18:11:48.188Z,8.40
2019-03-19T18:14:17.996Z,7.70
2019-03-19T18:16:49.358Z,7.80
2019-03-19T18:19:18.563Z,8.63
2019-03-19T18:21:47.696Z,11.30
2019-03-19T18:24:16.730Z,9.20
2019-03-19T18:26:46.128Z,9.43
2019-03-19T18:29:15.351Z,8.83
2019-03-19T18:31:45.423Z,8.83
2019-03-19T18:34:14.495Z,8.63
2019-03-19T18:36:43.678Z,9.07
2019-03-19T18:39:12.594Z,8.63
2019-03-19T18:41:43.858Z,8.43
2019-03-19T18:44:13.600Z,8.60
2019-03-19T18:46:42.662Z,9.00
2019-03-19T18:49:12.239Z,8.90
2019-03-19T18:51:44.337Z,8.50
2019-03-19T18:54:13.248Z,9.23
2019-03-19T18:56:42.559Z,9.07
2019-03-19T18:59:11.576Z,10.73
2019-03-19T19:01:41.141Z,12.73
2019-03-19T19:04:10.115Z,10.67
2019-03-19T19:06:39.752Z,9.80
2019-03-19T19:09:09.431Z,10.23
2019-03-19T19:11:39.723Z,11.00
2019-03-19T19:14:11.792Z,10.93
2019-03-19T19:16:40.723Z,11.40
2019-03-19T19:19:09.948Z,10.30
2019-03-19T19:21:38.875Z,10.03
2019-03-19T19:24:08.574Z,10.60
2019-03-19T19:26:37.636Z,11.13
2019-03-19T19:29:07.037Z,10.20
2019-03-19T19:31:36.047Z,11.40
2019-03-19T19:34:05.422Z,11.90
2019-03-19T19:36:37.460Z,10.57
2019-03-19T19:39:07.831Z,11.67
2019-03-19T19:41:37.201Z,11.47
2019-03-19T19:44:06.219Z,11.83
2019-03-19T19:46:35.932Z,11.90
2019-03-19T19:49:08.264Z,11.77
2019-03-19T19:51:37.595Z,12.07
2019-03-19T19:54:06.546Z,11.50
2019-03-19T19:56:35.727Z,12.63
2019-03-19T19:59:05.285Z,11.77
2019-03-19T20:01:45.126Z,12.15
2019-03-19T20:04:17.302Z,11.27
2019-03-19T20:06:46.641Z,10.57
2019-03-19T20:09:18.907Z,10.90
2019-03-19T20:11:48.902Z,9.97
2019-03-19T20:14:21.728Z,10.00
2019-03-19T20:16:52.709Z,10.73
2019-03-19T20:19:21.889Z,10.60
2019-03-19T20:21:54.441Z,11.57
2019-03-19T20:24:23.825Z,11.47
2019-03-19T20:26:53.043Z,10.57
2019-03-19T20:29:22.220Z,10.97
2019-03-19T20:31:51.544Z,11.33
2019-03-19T20:34:23.624Z,10.30
2019-03-19T20:36:53.013Z,10.70
2019-03-19T20:39:22.426Z,10.70
2019-03-19T20:41:51.679Z,10.57
2019-03-19T20:44:20.798Z,10.47
2019-03-19T20:46:50.100Z,10.50
2019-03-19T20:49:22.299Z,10.47
2019-03-19T20:51:54.347Z,11.63
2019-03-19T20:54:23.663Z,10.43
2019-03-19T20:56:54.952Z,9.70
2019-03-19T20:59:24.002Z,10.20
2019-03-19T21:01:53.014Z,10.20
2019-03-19T21:04:22.749Z,9.83
2019-03-19T21:06:51.867Z,9.67
2019-03-19T21:09:23.631Z,9.87
2019-03-19T21:11:53.440Z,9.67
2019-03-19T21:14:23.343Z,9.70
2019-03-19T21:16:52.289Z,10.23
2019-03-19T21:19:22.668Z,10.03
2019-03-19T21:21:51.898Z,9.73
2019-03-19T21:24:21.098Z,10.57
2019-03-19T21:26:50.345Z,9.87
2019-03-19T21:29:22.405Z,11.47
2019-03-19T21:31:55.739Z,12.17
2019-03-19T21:34:24.849Z,11.30
2019-03-19T21:36:53.848Z,10.67
2019-03-19T21:39:23.188Z,10.70
2019-03-19T21:41:52.528Z,11.23
2019-03-19T21:44:22.017Z,11.23
2019-03-19T21:46:51.832Z,10.17
2019-03-19T21:49:21.401Z,10.77
2019-03-19T21:51:51.213Z,10.93
2019-03-19T21:54:20.039Z,10.70
2019-03-19T21:56:49.974Z,11.53
2019-03-19T21:59:18.807Z,11.23
2019-03-19T22:01:47.744Z,12.30
2019-03-19T22:04:16.933Z,11.97
2019-03-19T22:06:46.263Z,11.70
2019-03-19T22:09:15.421Z,11.70
2019-03-19T22:11:44.398Z,12.70
2019-03-19T22:14:13.322Z,12.33
2019-03-19T22:16:42.577Z,12.23
2019-03-19T22:19:11.731Z,12.80
2019-03-19T22:21:40.982Z,13.07
2019-03-19T22:24:09.919Z,13.37
2019-03-19T22:26:39.247Z,12.33
2019-03-19T22:29:08.505Z,13.13
2019-03-19T22:31:37.972Z,13.20
2019-03-19T22:34:14.078Z,13.43
2019-03-19T22:36:39.752Z,13.20
2019-03-19T22:39:09.660Z,13.70
2019-03-19T22:41:42.368Z,13.73
2019-03-19T22:44:12.027Z,12.93
2019-03-19T22:46:41.335Z,13.67
2019-03-19T22:49:11.031Z,13.73
2019-03-19T22:51:41.775Z,13.70
2019-03-19T22:54:11.263Z,14.47
2019-03-19T22:56:40.280Z,14.53
2019-03-19T22:59:09.191Z,15.43
2019-03-19T23:01:38.976Z,14.33
2019-03-19T23:04:08.039Z,14.73
2019-03-19T23:06:37.207Z,14.63
2019-03-19T23:09:07.941Z,14.33
2019-03-19T23:11:37.392Z,14.57
2019-03-19T23:16:41.013Z,14.57
2019-03-19T23:19:10.327Z,14.33
2019-03-19T23:21:39.394Z,14.13
2019-03-19T23:24:08.557Z,14.27
2019-03-19T23:26:37.878Z,14.57
2019-03-19T23:29:06.792Z,14.53
2019-03-19T23:31:35.886Z,13.47
2019-03-19T23:34:04.982Z,13.70
2019-03-19T23:36:37.779Z,14.40
2019-03-19T23:39:08.288Z,14.00
2019-03-19T23:41:37.560Z,14.20
2019-03-19T23:44:06.564Z,14.10
2019-03-19T23:46:36.185Z,14.40
2019-03-19T23:49:05.900Z,14.03
2019-03-19T23:51:34.921Z,14.97
2019-03-19T23:54:04.047Z,14.73
2019-03-19T23:56:32.895Z,14.53
2019-03-19T23:59:02.111Z,15.10
